Time;durP1;ratioP1;P1;durP2;ratioP2;P2;SDS_P1;SDS_P2;PMS_P1;PMS_P2;Temp;Humidity;BMP_temperature;BMP_pressure;BME280_temperature;BME280_humidity;BME280_pressure;Samples;Min_cycle;Max_cycle;Signal;HPM_P1;HPM_P2
2022/09/24 00:02:17;;;;;;;;;;;20.80;44.90;;;;;;5082240;28;20011;-66
2022/09/24 00:04:44;;;;;;;;;;;20.80;44.90;;;;;;5084969;28;19921;-67
2022/09/24 00:07:11;;;;;;;;;;;20.80;44.90;;;;;;5085373;28;20424;-64
2022/09/24 00:09:40;;;;;;;;;;;20.80;44.90;;;;;;5071964;28;20003;-64
2022/09/24 00:12:06;;;;;;;;;;;20.80;44.90;;;;;;5080120;28;19983;-64
2022/09/24 00:14:33;;;;;;;;;;;20.80;45.00;;;;;;5057069;28;19921;-63
2022/09/24 00:17:00;;;;;;;;;;;20.80;45.00;;;;;;5084814;28;19927;-66
2022/09/24 00:19:27;;;;;;;;;;;20.80;45.00;;;;;;5067984;28;19938;-66
2022/09/24 00:21:53;;;;;;;;;;;20.80;45.00;;;;;;5068144;28;19952;-66
2022/09/24 00:27:06;;;;;;;;;;;20.80;45.10;;;;;;5067649;28;19931;-64
2022/09/24 00:29:34;;;;;;;;;;;20.80;45.10;;;;;;5055893;28;20019;-64
2022/09/24 00:32:01;;;;;;;;;;;20.80;45.10;;;;;;5067742;28;19925;-64
2022/09/24 00:34:27;;;;;;;;;;;20.80;45.10;;;;;;5064576;28;19983;-64
2022/09/24 00:36:54;;;;;;;;;;;20.80;45.10;;;;;;5075956;28;19928;-65
2022/09/24 00:39:21;;;;;;;;;;;20.80;45.10;;;;;;5067886;28;20015;-66
2022/09/24 00:41:48;;;;;;;;;;;20.80;45.10;;;;;;5072334;28;19925;-67
2022/09/24 00:44:29;;;;;;;;;;;20.80;45.10;;;;;;5084767;28;19963;-66
2022/09/24 00:46:57;;;;;;;;;;;20.80;45.10;;;;;;5040594;28;19925;-67
2022/09/24 00:49:24;;;;;;;;;;;20.80;45.20;;;;;;5068587;28;19920;-64
2022/09/24 00:51:51;;;;;;;;;;;20.80;45.10;;;;;;5081844;28;19921;-63
2022/09/24 00:54:19;;;;;;;;;;;20.80;45.10;;;;;;5068701;28;19928;-64
2022/09/24 00:56:45;;;;;;;;;;;20.80;45.10;;;;;;5084712;28;19962;-65
2022/09/24 00:59:16;;;;;;;;;;;20.80;45.10;;;;;;5066951;28;19932;-64
2022/09/24 01:01:42;;;;;;;;;;;20.80;45.10;;;;;;5067345;28;20134;-64
2022/09/24 01:04:11;;;;;;;;;;;20.80;45.10;;;;;;5083067;28;19962;-63
2022/09/24 01:06:38;;;;;;;;;;;20.80;45.10;;;;;;5084227;28;19924;-64
2022/09/24 01:09:04;;;;;;;;;;;20.80;45.10;;;;;;5083429;28;19931;-65
2022/09/24 01:11:42;;;;;;;;;;;20.80;45.20;;;;;;5082845;28;19921;-64
2022/09/24 01:14:11;;;;;;;;;;;20.80;45.10;;;;;;5082757;28;19927;-64
2022/09/24 01:16:40;;;;;;;;;;;20.80;45.10;;;;;;5083935;28;20023;-64
2022/09/24 01:19:10;;;;;;;;;;;20.80;45.10;;;;;;5083848;28;19979;-64
2022/09/24 01:21:39;;;;;;;;;;;20.80;45.10;;;;;;5074365;28;19928;-65
2022/09/24 01:24:11;;;;;;;;;;;20.80;45.10;;;;;;5068460;28;20007;-65
2022/09/24 01:26:44;;;;;;;;;;;20.80;45.10;;;;;;5057881;28;20377;-65
2022/09/24 01:29:26;;;;;;;;;;;20.80;45.10;;;;;;5083929;28;19921;-65
2022/09/24 01:31:53;;;;;;;;;;;20.80;45.10;;;;;;5082474;28;19973;-65
2022/09/24 01:34:22;;;;;;;;;;;20.80;45.20;;;;;;5067076;28;20222;-65
2022/09/24 01:36:48;;;;;;;;;;;20.80;45.20;;;;;;5068737;28;19974;-65
2022/09/24 01:39:15;;;;;;;;;;;20.80;45.20;;;;;;5083210;28;19924;-66
2022/09/24 01:41:43;;;;;;;;;;;20.80;45.20;;;;;;5068624;28;19964;-64
2022/09/24 01:44:10;;;;;;;;;;;20.80;45.20;;;;;;5066224;28;19920;-66
2022/09/24 01:46:38;;;;;;;;;;;20.80;45.20;;;;;;5079153;28;19925;-65
2022/09/24 01:49:06;;;;;;;;;;;20.80;45.20;;;;;;5067333;28;19927;-66
2022/09/24 01:51:33;;;;;;;;;;;20.70;45.10;;;;;;5071371;28;20373;-67
2022/09/24 01:54:01;;;;;;;;;;;20.80;45.20;;;;;;5083538;28;19924;-66
2022/09/24 01:56:29;;;;;;;;;;;20.80;45.20;;;;;;5067426;28;19970;-66
2022/09/24 01:58:57;;;;;;;;;;;20.80;45.20;;;;;;5067906;28;19986;-66
2022/09/24 02:01:25;;;;;;;;;;;20.80;45.30;;;;;;5084005;28;20495;-66
2022/09/24 02:03:53;;;;;;;;;;;20.80;45.20;;;;;;5063263;28;20007;-66
2022/09/24 02:06:20;;;;;;;;;;;20.80;45.20;;;;;;5088936;28;19920;-65
2022/09/24 02:08:47;;;;;;;;;;;20.80;45.20;;;;;;5087606;28;19924;-65
2022/09/24 02:11:15;;;;;;;;;;;20.80;45.20;;;;;;5073540;28;19925;-66
2022/09/24 02:13:42;;;;;;;;;;;20.80;45.30;;;;;;5077777;28;19920;-67
2022/09/24 02:16:09;;;;;;;;;;;20.80;45.30;;;;;;5085191;28;20036;-65
2022/09/24 02:18:37;;;;;;;;;;;20.80;45.20;;;;;;5087241;28;19933;-66
2022/09/24 02:21:06;;;;;;;;;;;20.80;45.30;;;;;;5086851;28;19921;-67
2022/09/24 02:23:33;;;;;;;;;;;20.80;45.30;;;;;;5076517;28;19920;-67
2022/09/24 02:26:01;;;;;;;;;;;20.80;45.30;;;;;;5077605;28;19920;-66
2022/09/24 02:28:28;;;;;;;;;;;20.80;45.30;;;;;;5083353;28;19925;-67
2022/09/24 02:30:55;;;;;;;;;;;20.70;45.20;;;;;;5051528;28;19924;-66
2022/09/24 02:36:08;;;;;;;;;;;20.80;45.30;;;;;;5084221;28;19929;-67
2022/09/24 02:38:35;;;;;;;;;;;20.80;45.30;;;;;;5092362;28;20074;-65
2022/09/24 02:41:02;;;;;;;;;;;20.80;45.30;;;;;;5073078;28;19921;-66
2022/09/24 02:43:29;;;;;;;;;;;20.80;45.30;;;;;;5090585;28;19920;-66
2022/09/24 02:45:55;;;;;;;;;;;20.80;45.30;;;;;;5084242;28;20016;-65
2022/09/24 02:48:22;;;;;;;;;;;20.80;45.40;;;;;;5065173;28;20007;-67
2022/09/24 02:50:49;;;;;;;;;;;20.80;45.90;;;;;;5070710;28;19925;-66
2022/09/24 02:53:19;;;;;;;;;;;20.80;45.40;;;;;;5086854;28;19925;-66
2022/09/24 02:55:46;;;;;;;;;;;20.80;45.30;;;;;;5088123;28;19989;-66
2022/09/24 02:58:12;;;;;;;;;;;20.80;45.40;;;;;;5084167;28;19925;-67
2022/09/24 03:00:39;;;;;;;;;;;20.80;45.30;;;;;;5070970;28;19924;-66
2022/09/24 03:03:06;;;;;;;;;;;20.70;45.30;;;;;;5054911;28;19933;-67
2022/09/24 03:05:33;;;;;;;;;;;20.80;45.40;;;;;;5103715;28;19943;-66
2022/09/24 03:07:59;;;;;;;;;;;20.70;45.30;;;;;;5103539;28;19965;-66
2022/09/24 03:10:27;;;;;;;;;;;20.70;45.30;;;;;;5102445;28;19920;-67
2022/09/24 03:12:55;;;;;;;;;;;20.70;45.30;;;;;;5083969;28;19952;-66
2022/09/24 03:15:22;;;;;;;;;;;20.80;45.40;;;;;;5052473;28;19920;-66
2022/09/24 03:17:48;;;;;;;;;;;20.70;45.30;;;;;;5071586;28;19975;-66
2022/09/24 03:20:15;;;;;;;;;;;20.70;45.30;;;;;;5069059;28;19921;-67
2022/09/24 03:22:42;;;;;;;;;;;20.80;45.40;;;;;;5069292;28;19921;-66
2022/09/24 03:25:09;;;;;;;;;;;20.70;45.30;;;;;;5060556;28;20386;-66
2022/09/24 03:27:38;;;;;;;;;;;20.80;45.40;;;;;;5066374;28;20019;-66
2022/09/24 03:32:49;;;;;;;;;;;20.70;45.30;;;;;;5066319;28;20007;-67
2022/09/24 03:35:18;;;;;;;;;;;20.70;45.30;;;;;;5070499;28;19996;-66
2022/09/24 03:37:45;;;;;;;;;;;20.70;45.30;;;;;;5103246;28;19920;-65
2022/09/24 03:40:12;;;;;;;;;;;20.70;45.40;;;;;;5103073;28;20011;-66
2022/09/24 03:42:40;;;;;;;;;;;20.70;45.40;;;;;;5067512;28;20015;-65
2022/09/24 03:45:07;;;;;;;;;;;20.70;45.40;;;;;;5083428;28;20011;-66
2022/09/24 03:47:34;;;;;;;;;;;20.70;45.40;;;;;;5084403;28;19928;-66
2022/09/24 03:50:01;;;;;;;;;;;20.70;45.40;;;;;;5065638;28;19924;-66
2022/09/24 03:52:28;;;;;;;;;;;20.70;45.40;;;;;;5065734;28;20233;-66
2022/09/24 03:54:55;;;;;;;;;;;20.70;45.40;;;;;;5078832;28;19983;-67
2022/09/24 03:57:22;;;;;;;;;;;20.70;45.40;;;;;;5068164;28;19921;-66
2022/09/24 03:59:51;;;;;;;;;;;20.70;45.50;;;;;;5079656;28;19932;-66
2022/09/24 04:02:19;;;;;;;;;;;20.70;45.50;;;;;;5066712;28;20205;-66
2022/09/24 04:04:46;;;;;;;;;;;20.70;45.50;;;;;;5066403;28;19924;-66
2022/09/24 04:07:12;;;;;;;;;;;20.70;45.50;;;;;;5065570;28;19998;-66
2022/09/24 04:09:40;;;;;;;;;;;20.70;45.50;;;;;;5077252;28;19924;-66
2022/09/24 04:12:07;;;;;;;;;;;20.70;45.50;;;;;;5085376;28;19931;-66
2022/09/24 04:14:33;;;;;;;;;;;20.70;45.50;;;;;;5068317;28;19956;-66
2022/09/24 04:17:02;;;;;;;;;;;20.70;45.60;;;;;;5067921;28;19972;-66
2022/09/24 04:19:30;;;;;;;;;;;20.70;45.60;;;;;;5074801;28;20352;-66
2022/09/24 04:21:57;;;;;;;;;;;20.70;45.60;;;;;;5084734;28;19959;-66
2022/09/24 04:24:24;;;;;;;;;;;20.70;45.60;;;;;;5076855;28;19927;-66
2022/09/24 04:26:50;;;;;;;;;;;20.70;45.60;;;;;;5049326;28;19921;-66
2022/09/24 04:29:17;;;;;;;;;;;20.70;45.60;;;;;;5072767;28;20028;-68
2022/09/24 04:31:44;;;;;;;;;;;20.70;45.60;;;;;;5085216;28;19943;-66
2022/09/24 04:34:13;;;;;;;;;;;20.70;45.70;;;;;;5084341;28;20015;-66
2022/09/24 04:36:40;;;;;;;;;;;20.70;45.70;;;;;;5064454;28;19921;-66
2022/09/24 04:39:06;;;;;;;;;;;20.70;45.70;;;;;;5070753;28;19920;-66
2022/09/24 04:41:33;;;;;;;;;;;20.70;45.70;;;;;;5084978;28;20047;-67
2022/09/24 04:44:00;;;;;;;;;;;20.70;45.70;;;;;;5084505;28;19959;-66
2022/09/24 04:46:27;;;;;;;;;;;20.70;45.80;;;;;;5072559;28;19921;-65
2022/09/24 04:48:54;;;;;;;;;;;20.70;45.80;;;;;;5082319;28;19920;-66
2022/09/24 04:51:22;;;;;;;;;;;20.70;45.80;;;;;;5072277;28;19921;-66
2022/09/24 04:53:49;;;;;;;;;;;20.70;45.80;;;;;;5049805;28;20308;-65
2022/09/24 04:56:16;;;;;;;;;;;20.70;45.80;;;;;;5084636;28;19927;-67
2022/09/24 04:58:43;;;;;;;;;;;20.70;45.80;;;;;;5068068;28;19925;-66
2022/09/24 05:01:37;;;;;;;;;;;20.70;45.80;;;;;;5101992;27;19912;-64
2022/09/24 05:04:04;;;;;;;;;;;20.70;45.90;;;;;;5100456;28;20017;-63
2022/09/24 05:06:31;;;;;;;;;;;20.70;45.90;;;;;;5077417;28;19925;-64
2022/09/24 05:08:57;;;;;;;;;;;20.70;45.90;;;;;;5084212;28;19928;-64
2022/09/24 05:11:24;;;;;;;;;;;20.70;45.90;;;;;;5084957;28;19932;-64
2022/09/24 05:13:51;;;;;;;;;;;20.70;45.90;;;;;;5077532;28;20011;-63
2022/09/24 05:16:17;;;;;;;;;;;20.70;46.00;;;;;;5080258;28;19925;-64
2022/09/24 05:18:45;;;;;;;;;;;20.70;46.00;;;;;;5064671;28;19956;-64
2022/09/24 05:21:12;;;;;;;;;;;20.70;46.00;;;;;;5084441;28;19963;-63
2022/09/24 05:23:39;;;;;;;;;;;20.70;46.00;;;;;;5082836;28;20031;-64
2022/09/24 05:28:51;;;;;;;;;;;20.70;46.00;;;;;;5083784;28;19949;-63
2022/09/24 05:31:17;;;;;;;;;;;20.70;46.10;;;;;;5084382;28;19925;-64
2022/09/24 05:33:45;;;;;;;;;;;20.70;46.10;;;;;;5082983;28;19952;-63
2022/09/24 05:36:12;;;;;;;;;;;20.70;46.10;;;;;;5081337;28;19927;-64
2022/09/24 05:38:39;;;;;;;;;;;20.70;46.10;;;;;;5079666;28;20508;-63
2022/09/24 05:41:06;;;;;;;;;;;20.70;46.20;;;;;;5083024;28;20023;-63
2022/09/24 05:43:32;;;;;;;;;;;20.70;46.10;;;;;;5083946;28;19921;-63
2022/09/24 05:45:59;;;;;;;;;;;20.70;46.20;;;;;;5079479;28;19964;-64
2022/09/24 05:48:27;;;;;;;;;;;20.70;46.20;;;;;;5083914;28;19963;-64
2022/09/24 05:50:55;;;;;;;;;;;20.70;46.20;;;;;;5083858;28;20019;-63
2022/09/24 05:53:22;;;;;;;;;;;20.70;46.20;;;;;;5082511;28;20310;-64
2022/09/24 05:55:48;;;;;;;;;;;20.70;46.20;;;;;;5099896;28;19930;-64
2022/09/24 05:58:15;;;;;;;;;;;20.70;46.30;;;;;;5083624;28;19968;-63
2022/09/24 06:00:44;;;;;;;;;;;20.70;46.30;;;;;;5082433;28;20003;-64
2022/09/24 06:03:11;;;;;;;;;;;20.70;46.30;;;;;;5081852;28;20366;-63
2022/09/24 06:05:38;;;;;;;;;;;20.70;46.30;;;;;;5083247;28;19943;-63
2022/09/24 06:08:07;;;;;;;;;;;20.70;46.30;;;;;;5080476;28;19959;-63
2022/09/24 06:10:34;;;;;;;;;;;20.70;46.30;;;;;;5099026;28;19931;-63
2022/09/24 06:13:00;;;;;;;;;;;20.70;46.30;;;;;;5068451;28;19963;-64
2022/09/24 06:15:27;;;;;;;;;;;20.70;46.30;;;;;;5083840;28;19943;-63
2022/09/24 06:17:54;;;;;;;;;;;20.70;46.40;;;;;;5069956;28;19929;-64
2022/09/24 06:20:21;;;;;;;;;;;20.70;46.40;;;;;;5066224;28;20287;-63
2022/09/24 06:22:47;;;;;;;;;;;20.70;46.40;;;;;;5069568;28;19924;-64
2022/09/24 06:25:16;;;;;;;;;;;20.70;46.40;;;;;;5069645;28;19936;-63
2022/09/24 06:27:43;;;;;;;;;;;20.70;46.40;;;;;;5062132;28;19924;-63
2022/09/24 06:30:11;;;;;;;;;;;20.70;47.00;;;;;;5069415;28;19924;-64
2022/09/24 06:32:37;;;;;;;;;;;20.70;46.50;;;;;;5069528;28;19920;-63
2022/09/24 06:35:04;;;;;;;;;;;20.70;46.50;;;;;;5069564;28;20007;-63
2022/09/24 06:37:32;;;;;;;;;;;20.70;46.50;;;;;;5064877;28;19970;-63
2022/09/24 06:39:59;;;;;;;;;;;20.70;46.50;;;;;;5073006;28;20326;-64
2022/09/24 06:42:27;;;;;;;;;;;20.70;46.50;;;;;;5077940;28;19974;-64
2022/09/24 06:44:54;;;;;;;;;;;20.70;46.50;;;;;;5055106;28;19970;-64
2022/09/24 06:47:20;;;;;;;;;;;20.70;46.60;;;;;;5086337;28;19962;-64
2022/09/24 06:49:49;;;;;;;;;;;20.70;46.60;;;;;;5085903;28;20015;-65
2022/09/24 06:52:16;;;;;;;;;;;20.70;46.60;;;;;;5068397;28;19921;-64
2022/09/24 06:54:43;;;;;;;;;;;20.70;46.60;;;;;;5069294;28;19927;-64
2022/09/24 06:57:10;;;;;;;;;;;20.70;46.60;;;;;;5055209;28;19931;-64
2022/09/24 06:59:38;;;;;;;;;;;20.70;46.60;;;;;;5068071;28;19924;-65
2022/09/24 07:02:04;;;;;;;;;;;20.70;46.60;;;;;;5057885;28;19943;-64
2022/09/24 07:04:31;;;;;;;;;;;20.70;46.60;;;;;;5050195;28;19921;-64
2022/09/24 07:09:42;;;;;;;;;;;20.70;46.70;;;;;;5077218;28;20335;-64
2022/09/24 07:12:09;;;;;;;;;;;20.70;46.70;;;;;;5069468;28;20054;-64
2022/09/24 07:14:36;;;;;;;;;;;20.70;46.70;;;;;;5060647;28;19982;-64
2022/09/24 07:17:04;;;;;;;;;;;20.70;46.70;;;;;;5069111;28;19924;-64
2022/09/24 07:19:30;;;;;;;;;;;20.70;46.80;;;;;;5070180;28;19931;-65
2022/09/24 07:21:57;;;;;;;;;;;20.70;46.70;;;;;;5064891;28;19925;-64
2022/09/24 07:24:24;;;;;;;;;;;20.70;46.70;;;;;;5060762;28;20428;-64
2022/09/24 07:26:51;;;;;;;;;;;20.70;46.80;;;;;;5069147;28;19924;-64
2022/09/24 07:29:17;;;;;;;;;;;20.70;46.70;;;;;;5055411;28;19966;-64
2022/09/24 07:31:44;;;;;;;;;;;20.70;46.80;;;;;;5084867;28;19959;-66
2022/09/24 07:34:12;;;;;;;;;;;20.70;46.80;;;;;;5070130;28;20029;-64
2022/09/24 07:36:39;;;;;;;;;;;20.70;46.80;;;;;;5063403;28;19964;-65
2022/09/24 07:39:06;;;;;;;;;;;20.70;46.90;;;;;;5051034;28;20317;-64
2022/09/24 07:41:33;;;;;;;;;;;20.70;46.80;;;;;;5064737;28;19924;-65
2022/09/24 07:43:59;;;;;;;;;;;20.70;46.90;;;;;;5063768;28;19925;-64
2022/09/24 07:46:26;;;;;;;;;;;20.70;46.90;;;;;;5080161;28;19927;-63
2022/09/24 07:48:54;;;;;;;;;;;20.70;46.90;;;;;;5084977;28;19920;-64
2022/09/24 07:51:24;;;;;;;;;;;20.70;46.90;;;;;;5080326;28;19925;-64
2022/09/24 07:53:51;;;;;;;;;;;20.70;46.90;;;;;;5059318;28;19932;-64
2022/09/24 07:56:18;;;;;;;;;;;20.70;46.90;;;;;;5066147;28;20321;-65
2022/09/24 07:58:45;;;;;;;;;;;20.70;46.90;;;;;;5088810;28;19932;-64
2022/09/24 08:01:12;;;;;;;;;;;20.70;46.90;;;;;;5071606;28;19920;-66
2022/09/24 08:03:39;;;;;;;;;;;20.70;46.90;;;;;;5064903;28;20302;-64
2022/09/24 08:06:06;;;;;;;;;;;20.70;46.90;;;;;;5063945;28;19928;-63
2022/09/24 08:08:35;;;;;;;;;;;20.70;46.90;;;;;;5066252;28;19924;-63
2022/09/24 08:11:02;;;;;;;;;;;20.70;46.80;;;;;;5063790;28;19924;-64
2022/09/24 08:13:29;;;;;;;;;;;20.70;46.80;;;;;;5066611;28;19960;-64
2022/09/24 08:15:57;;;;;;;;;;;20.70;46.80;;;;;;5069522;28;19974;-64
2022/09/24 08:18:24;;;;;;;;;;;20.70;46.80;;;;;;5065394;28;19925;-65
2022/09/24 08:20:50;;;;;;;;;;;20.70;46.80;;;;;;5062373;28;19921;-64
2022/09/24 08:23:17;;;;;;;;;;;20.70;46.80;;;;;;5069863;28;19927;-66
2022/09/24 08:25:45;;;;;;;;;;;20.70;46.80;;;;;;5085614;28;20017;-64
2022/09/24 08:28:15;;;;;;;;;;;20.70;46.80;;;;;;5067263;28;20006;-64
2022/09/24 08:30:42;;;;;;;;;;;20.70;46.80;;;;;;5068218;28;19921;-64
2022/09/24 08:33:09;;;;;;;;;;;20.70;46.80;;;;;;5072295;28;20411;-65
2022/09/24 08:35:35;;;;;;;;;;;20.70;46.80;;;;;;5067236;28;20007;-65
2022/09/24 08:38:02;;;;;;;;;;;20.70;46.80;;;;;;5068155;28;20099;-65
2022/09/24 08:40:30;;;;;;;;;;;20.70;46.80;;;;;;5064612;28;19920;-65
2022/09/24 08:42:59;;;;;;;;;;;20.70;46.90;;;;;;5078496;28;20020;-64
2022/09/24 08:48:12;;;;;;;;;;;20.70;47.10;;;;;;5073963;28;19927;-65
2022/09/24 08:50:40;;;;;;;;;;;20.70;47.20;;;;;;5044743;28;19921;-65
2022/09/24 08:53:12;;;;;;;;;;;20.70;47.40;;;;;;5072750;28;20007;-65
2022/09/24 08:55:39;;;;;;;;;;;20.70;47.50;;;;;;5079924;28;19963;-64
2022/09/24 08:58:21;;;;;;;;;;;20.70;47.50;;;;;;5098151;28;19927;-64
2022/09/24 09:00:50;;;;;;;;;;;20.70;47.50;;;;;;5075580;28;19951;-65
2022/09/24 09:03:17;;;;;;;;;;;20.70;47.60;;;;;;5080451;28;19928;-64
2022/09/24 09:05:48;;;;;;;;;;;20.70;48.00;;;;;;5068469;28;20369;-64
2022/09/24 09:08:17;;;;;;;;;;;20.70;47.60;;;;;;5068133;28;19925;-67
2022/09/24 09:10:43;;;;;;;;;;;20.70;48.00;;;;;;5067746;28;19924;-67
2022/09/24 09:13:11;;;;;;;;;;;20.70;48.40;;;;;;5067891;28;19932;-65
2022/09/24 09:15:39;;;;;;;;;;;20.70;48.70;;;;;;5058101;28;20020;-66
2022/09/24 09:18:11;;;;;;;;;;;20.70;48.90;;;;;;5065531;28;19973;-65
2022/09/24 09:20:39;;;;;;;;;;;20.70;49.10;;;;;;5067005;28;19925;-66
2022/09/24 09:23:07;;;;;;;;;;;20.70;49.30;;;;;;5069430;28;19933;-66
2022/09/24 09:25:35;;;;;;;;;;;20.70;49.50;;;;;;5067785;28;20019;-66
2022/09/24 09:28:02;;;;;;;;;;;20.70;49.60;;;;;;5049245;28;19921;-66
2022/09/24 09:30:30;;;;;;;;;;;20.60;49.70;;;;;;5065745;28;20209;-66
2022/09/24 09:33:00;;;;;;;;;;;20.60;49.70;;;;;;5064168;28;20135;-66
2022/09/24 09:35:30;;;;;;;;;;;20.60;49.80;;;;;;5069003;28;20007;-67
2022/09/24 09:37:57;;;;;;;;;;;20.60;50.00;;;;;;5057868;28;20008;-65
2022/09/24 09:40:26;;;;;;;;;;;20.60;50.10;;;;;;5059002;28;20015;-66
2022/09/24 09:42:58;;;;;;;;;;;20.60;50.20;;;;;;5067656;28;20378;-65
2022/09/24 09:45:25;;;;;;;;;;;20.60;50.30;;;;;;5073171;28;19922;-65
2022/09/24 09:47:54;;;;;;;;;;;20.50;50.20;;;;;;5051242;28;19955;-65
2022/09/24 09:50:24;;;;;;;;;;;20.50;50.30;;;;;;5090128;28;19923;-65
2022/09/24 09:52:52;;;;;;;;;;;20.50;50.50;;;;;;5077108;28;19932;-65
2022/09/24 09:55:22;;;;;;;;;;;20.50;50.30;;;;;;5091404;28;19924;-67
2022/09/24 09:57:49;;;;;;;;;;;20.50;50.30;;;;;;5068987;28;19921;-65
2022/09/24 10:00:24;;;;;;;;;;;20.50;50.20;;;;;;5069035;28;19964;-65
2022/09/24 10:02:52;;;;;;;;;;;20.50;50.10;;;;;;5071242;28;20377;-66
2022/09/24 10:05:19;;;;;;;;;;;20.50;50.10;;;;;;5071915;28;19920;-65
2022/09/24 10:07:46;;;;;;;;;;;20.50;49.90;;;;;;5068125;28;19928;-65
2022/09/24 10:10:18;;;;;;;;;;;20.50;49.80;;;;;;5070447;28;19931;-65
2022/09/24 10:12:45;;;;;;;;;;;20.50;49.60;;;;;;5069881;28;19929;-66
2022/09/24 10:15:16;;;;;;;;;;;20.50;49.50;;;;;;5074529;28;19925;-65
2022/09/24 10:17:42;;;;;;;;;;;20.50;49.50;;;;;;5074706;28;20198;-66
2022/09/24 10:20:10;;;;;;;;;;;20.50;49.40;;;;;;5074703;28;19983;-65
2022/09/24 10:22:37;;;;;;;;;;;20.50;49.30;;;;;;5057654;28;20273;-67
2022/09/24 10:25:04;;;;;;;;;;;20.60;49.30;;;;;;5061253;28;20298;-65
2022/09/24 10:27:32;;;;;;;;;;;20.60;49.20;;;;;;5069958;28;19932;-64
2022/09/24 10:32:44;;;;;;;;;;;20.60;49.20;;;;;;5088585;28;19920;-66
2022/09/24 10:35:26;;;;;;;;;;;20.60;49.10;;;;;;5055601;28;19927;-64
2022/09/24 10:37:53;;;;;;;;;;;20.60;49.10;;;;;;5068104;28;19921;-65
2022/09/24 10:40:22;;;;;;;;;;;20.60;49.00;;;;;;5051191;28;19992;-64
2022/09/24 10:42:56;;;;;;;;;;;20.60;49.00;;;;;;5067503;28;20358;-64
2022/09/24 10:45:22;;;;;;;;;;;20.60;48.90;;;;;;5069454;28;19921;-65
2022/09/24 10:47:50;;;;;;;;;;;20.60;48.90;;;;;;5083516;28;19924;-65
2022/09/24 10:50:24;;;;;;;;;;;20.60;48.90;;;;;;5053065;28;19920;-65
2022/09/24 10:52:51;;;;;;;;;;;20.60;49.00;;;;;;5067268;28;20023;-64
2022/09/24 10:55:23;;;;;;;;;;;20.60;48.90;;;;;;5053799;28;19972;-65
2022/09/24 10:57:52;;;;;;;;;;;20.60;49.00;;;;;;5053009;28;19978;-64
2022/09/24 11:00:20;;;;;;;;;;;20.60;49.00;;;;;;5067445;28;19921;-64
2022/09/24 11:03:01;;;;;;;;;;;20.60;49.00;;;;;;5055974;28;19972;-65
2022/09/24 11:05:29;;;;;;;;;;;20.60;49.10;;;;;;5067370;28;19975;-66
2022/09/24 11:07:59;;;;;;;;;;;20.60;49.20;;;;;;5067241;28;20281;-66
2022/09/24 11:10:30;;;;;;;;;;;20.60;49.20;;;;;;5067852;28;19921;-65
2022/09/24 11:13:01;;;;;;;;;;;20.60;49.20;;;;;;5083590;28;19927;-65
2022/09/24 11:15:33;;;;;;;;;;;20.60;49.10;;;;;;5069079;28;19935;-65
2022/09/24 11:18:03;;;;;;;;;;;20.60;49.00;;;;;;5066375;28;19921;-65
2022/09/24 11:20:32;;;;;;;;;;;20.60;49.00;;;;;;5066243;28;19920;-64
2022/09/24 11:23:17;;;;;;;;;;;20.70;49.10;;;;;;5055756;28;19928;-67
2022/09/24 11:25:44;;;;;;;;;;;20.70;49.20;;;;;;5058151;28;19932;-65
2022/09/24 11:28:23;;;;;;;;;;;20.70;49.30;;;;;;5063142;28;19928;-65
2022/09/24 11:30:55;;;;;;;;;;;20.70;49.20;;;;;;5071338;28;19924;-65
2022/09/24 11:33:26;;;;;;;;;;;20.70;49.10;;;;;;5069682;28;20349;-65
2022/09/24 11:35:56;;;;;;;;;;;20.70;49.10;;;;;;5083984;28;19920;-64
2022/09/24 11:38:27;;;;;;;;;;;20.70;49.10;;;;;;5068951;28;19931;-65
2022/09/24 11:41:04;;;;;;;;;;;20.70;49.10;;;;;;5090954;28;19939;-66
2022/09/24 11:43:44;;;;;;;;;;;20.70;49.10;;;;;;5074391;28;19924;-65
2022/09/24 11:46:15;;;;;;;;;;;20.70;49.10;;;;;;5065419;28;20014;-64
2022/09/24 11:48:59;;;;;;;;;;;20.70;49.20;;;;;;5068931;28;19932;-65
2022/09/24 11:51:29;;;;;;;;;;;20.70;49.30;;;;;;5063880;28;19981;-65
2022/09/24 11:53:56;;;;;;;;;;;20.70;49.40;;;;;;5067686;28;19979;-65
2022/09/24 11:56:24;;;;;;;;;;;20.70;49.30;;;;;;5083155;28;19920;-65
2022/09/24 11:58:51;;;;;;;;;;;20.70;49.30;;;;;;5070529;28;20366;-64
2022/09/24 12:01:20;;;;;;;;;;;20.70;49.30;;;;;;5049200;28;19933;-65
2022/09/24 12:03:47;;;;;;;;;;;20.70;49.30;;;;;;5062912;28;20354;-65
2022/09/24 12:06:15;;;;;;;;;;;20.70;49.50;;;;;;5060036;28;19968;-67
2022/09/24 12:08:42;;;;;;;;;;;20.70;49.50;;;;;;5068495;28;20175;-65
2022/09/24 12:11:10;;;;;;;;;;;20.70;49.40;;;;;;5065178;28;19920;-66
2022/09/24 12:13:38;;;;;;;;;;;20.70;49.40;;;;;;5073175;28;19952;-65
2022/09/24 12:16:06;;;;;;;;;;;20.70;49.40;;;;;;5048471;28;19920;-65
2022/09/24 12:18:35;;;;;;;;;;;20.70;49.50;;;;;;5083264;28;20182;-65
2022/09/24 12:21:05;;;;;;;;;;;20.70;49.50;;;;;;5067371;28;19921;-65
2022/09/24 12:23:34;;;;;;;;;;;20.70;49.50;;;;;;5081626;28;19933;-66
2022/09/24 12:26:01;;;;;;;;;;;20.70;49.60;;;;;;5063303;28;20019;-66
2022/09/24 12:34:02;;;;;;;;;;;20.70;49.60;;;;;;5074635;28;19943;-65
2022/09/24 12:36:31;;;;;;;;;;;20.70;49.70;;;;;;5061704;28;19932;-66
2022/09/24 12:39:01;;;;;;;;;;;20.70;49.80;;;;;;5087346;28;19966;-65
2022/09/24 12:41:28;;;;;;;;;;;20.70;49.80;;;;;;5061554;28;19921;-66
2022/09/24 12:43:57;;;;;;;;;;;20.70;49.70;;;;;;5068494;28;19935;-66
2022/09/24 12:46:25;;;;;;;;;;;20.70;49.70;;;;;;5065314;28;19928;-66
2022/09/24 12:48:52;;;;;;;;;;;20.70;49.60;;;;;;5058027;28;20443;-66
2022/09/24 12:51:22;;;;;;;;;;;20.70;49.80;;;;;;5072604;28;19921;-66
2022/09/24 12:53:56;;;;;;;;;;;20.70;49.90;;;;;;5062912;28;19985;-66
2022/09/24 12:56:23;;;;;;;;;;;20.70;49.90;;;;;;5062394;28;19987;-67
2022/09/24 12:58:50;;;;;;;;;;;20.80;49.90;;;;;;5073027;28;19920;-66
2022/09/24 13:01:25;;;;;;;;;;;20.80;49.90;;;;;;5059939;28;19932;-66
2022/09/24 13:04:01;;;;;;;;;;;20.80;50.00;;;;;;5060468;28;19974;-66
2022/09/24 13:06:33;;;;;;;;;;;20.80;50.10;;;;;;5067837;28;19951;-66
2022/09/24 13:09:00;;;;;;;;;;;20.80;50.10;;;;;;5057548;28;19920;-66
2022/09/24 13:11:28;;;;;;;;;;;20.80;50.20;;;;;;5056997;28;19924;-67
2022/09/24 13:14:04;;;;;;;;;;;20.80;50.10;;;;;;5061254;28;19921;-65
2022/09/24 13:16:31;;;;;;;;;;;20.80;50.00;;;;;;5067942;28;19924;-65
2022/09/24 13:18:58;;;;;;;;;;;20.80;50.00;;;;;;5061845;28;19921;-66
2022/09/24 13:21:26;;;;;;;;;;;20.80;49.90;;;;;;5061223;28;19977;-65
2022/09/24 13:23:54;;;;;;;;;;;20.80;49.90;;;;;;5064370;28;19920;-63
2022/09/24 13:26:28;;;;;;;;;;;20.80;50.00;;;;;;5058790;28;19974;-63
2022/09/24 13:28:57;;;;;;;;;;;20.80;50.00;;;;;;5059376;28;19920;-64
2022/09/24 13:31:26;;;;;;;;;;;20.80;49.90;;;;;;5070994;28;19956;-64
2022/09/24 13:33:53;;;;;;;;;;;20.80;50.10;;;;;;5058232;28;19968;-64
2022/09/24 13:36:22;;;;;;;;;;;20.80;50.30;;;;;;5079311;28;19921;-65
2022/09/24 13:38:50;;;;;;;;;;;20.80;50.50;;;;;;5071675;28;19963;-64
2022/09/24 13:41:22;;;;;;;;;;;20.80;50.60;;;;;;5065786;28;20023;-64
2022/09/24 13:43:50;;;;;;;;;;;20.80;50.60;;;;;;5061365;28;20019;-64
2022/09/24 13:46:17;;;;;;;;;;;20.80;50.50;;;;;;5053628;28;19921;-67
2022/09/24 13:48:46;;;;;;;;;;;20.80;50.60;;;;;;5073888;28;19920;-64
2022/09/24 13:51:13;;;;;;;;;;;20.80;50.80;;;;;;5065854;28;19921;-64
2022/09/24 13:53:41;;;;;;;;;;;20.80;50.90;;;;;;5062884;28;19920;-64
2022/09/24 13:56:11;;;;;;;;;;;20.80;50.90;;;;;;5065535;28;19924;-65
2022/09/24 13:58:40;;;;;;;;;;;20.80;50.90;;;;;;5064556;28;20415;-64
2022/09/24 14:01:10;;;;;;;;;;;20.80;51.10;;;;;;5066508;28;19921;-64
2022/09/24 14:03:37;;;;;;;;;;;20.80;51.20;;;;;;5064563;28;20019;-64
2022/09/24 14:06:09;;;;;;;;;;;20.80;51.40;;;;;;5066141;28;19986;-67
2022/09/24 14:08:37;;;;;;;;;;;20.80;51.50;;;;;;5082184;28;19986;-65
2022/09/24 14:11:06;;;;;;;;;;;20.80;51.70;;;;;;5063967;28;19921;-65
2022/09/24 14:13:37;;;;;;;;;;;20.80;51.70;;;;;;5064080;28;19940;-66
2022/09/24 14:16:08;;;;;;;;;;;20.80;51.60;;;;;;5064515;28;19947;-64
2022/09/24 14:18:35;;;;;;;;;;;20.80;51.60;;;;;;5062301;28;20290;-64
2022/09/24 14:21:05;;;;;;;;;;;20.80;51.60;;;;;;5064344;28;20419;-65
2022/09/24 14:23:33;;;;;;;;;;;20.80;51.60;;;;;;5068862;28;20007;-66
2022/09/24 14:26:00;;;;;;;;;;;20.80;51.50;;;;;;5063858;28;20380;-64
2022/09/24 14:28:31;;;;;;;;;;;20.80;51.50;;;;;;5067151;28;19939;-65
2022/09/24 14:30:58;;;;;;;;;;;20.80;51.40;;;;;;5058713;28;19927;-63
2022/09/24 14:33:26;;;;;;;;;;;20.80;51.30;;;;;;5063962;28;20028;-66
2022/09/24 14:35:53;;;;;;;;;;;20.80;51.30;;;;;;5083075;28;20016;-64
2022/09/24 14:38:21;;;;;;;;;;;20.80;51.20;;;;;;5067704;28;20044;-65
2022/09/24 14:40:48;;;;;;;;;;;20.80;51.20;;;;;;5065043;28;20409;-64
2022/09/24 14:43:16;;;;;;;;;;;20.80;51.10;;;;;;5068493;28;19964;-65
2022/09/24 14:45:42;;;;;;;;;;;20.80;51.00;;;;;;5070526;28;20324;-65
2022/09/24 14:48:17;;;;;;;;;;;20.80;51.00;;;;;;5082351;28;20019;-64